createdAt,value
2016-02-18T00:00:14.061Z,0.34
2016-02-18T00:01:23.797Z,0.3
2016-02-18T00:02:11.063Z,0.33
2016-02-18T00:03:30.255Z,0.15
2016-02-18T00:04:17.181Z,0.15
2016-02-18T00:05:39.796Z,-0.06
2016-02-18T00:06:49.190Z,-0.09
2016-02-18T00:07:58.537Z,-0.09
2016-02-18T00:09:07.867Z,-0.18
2016-02-18T00:10:04.495Z,-0.18
2016-02-18T00:12:14.081Z,-0.2
2016-02-18T00:13:10.706Z,-0.2
2016-02-18T00:14:20.274Z,-0.26
2016-02-18T00:15:20.276Z,-0.17
2016-02-18T00:17:26.564Z,-0.31
2016-02-18T00:19:41.708Z,-0.1
2016-02-18T00:20:41.697Z,-0.12
2016-02-18T00:21:54.324Z,-0.06
2016-02-18T00:22:54.467Z,-0.07
2016-02-18T00:24:00.985Z,-0.05
2016-02-18T00:25:00.988Z,0.01
2016-02-18T00:26:07.491Z,0.02
2016-02-18T00:27:04.134Z,0.13
2016-02-18T00:28:04.105Z,0.13
2016-02-18T00:29:12.030Z,0.15
2016-02-18T00:30:05.548Z,0.2
2016-02-18T00:32:02.398Z,0.37
2016-02-18T00:33:02.401Z,0.37
2016-02-18T00:34:15.312Z,0.45
2016-02-18T00:35:08.734Z,0.47
2016-02-18T00:36:21.645Z,0.48
2016-02-18T00:37:15.262Z,0.64
2016-02-18T00:38:28.140Z,0.68
2016-02-18T00:40:02.517Z,0.74
2016-02-18T00:40:40.739Z,0.71
2016-02-18T00:41:40.758Z,0.74
2016-02-18T00:42:55.963Z,0.84
2016-02-18T00:43:55.951Z,0.91
2016-02-18T00:44:55.984Z,0.88
2016-02-18T00:45:56.175Z,0.86
2016-02-18T00:47:02.255Z,0.92
2016-02-18T00:47:56.633Z,1.04
2016-02-18T00:49:08.777Z,1.02
2016-02-18T00:50:08.779Z,0.99
2016-02-18T00:51:15.330Z,1.04
2016-02-18T00:52:21.740Z,1
2016-02-18T00:53:56.197Z,1
2016-02-18T00:54:34.449Z,1.1
2016-02-18T00:55:34.436Z,1.06
2016-02-18T00:56:34.485Z,1.02
2016-02-18T00:57:40.722Z,1.03
2016-02-18T00:58:47.209Z,1.06
2016-02-18T00:59:47.306Z,1.1
2016-02-18T01:00:47.230Z,1.07
2016-02-18T01:01:47.327Z,1.03
2016-02-18T01:02:47.267Z,0.94
2016-02-18T01:03:53.739Z,0.92
2016-02-18T01:04:53.773Z,0.91
2016-02-18T01:06:00.260Z,0.99
2016-02-18T01:06:44.142Z,0.92
2016-02-18T01:08:03.395Z,0.95
2016-02-18T01:09:41.134Z,0.84
2016-02-18T01:10:19.356Z,0.81
2016-02-18T01:12:21.970Z,0.81
2016-02-18T01:13:00.220Z,0.74
2016-02-18T01:13:34.567Z,0.68
2016-02-18T01:15:45.525Z,0.64
2016-02-18T01:16:45.606Z,0.56
2016-02-18T01:17:46.969Z,0.52
2016-02-18T01:18:45.644Z,0.47
2016-02-18T01:19:54.880Z,0.36
2016-02-18T01:20:47.024Z,0.34
2016-02-18T01:21:45.636Z,0.34
2016-02-18T01:23:04.904Z,0.37
2016-02-18T01:23:58.391Z,0.34
2016-02-18T01:25:11.316Z,0.34
2016-02-18T01:26:04.896Z,0.36
2016-02-18T01:27:17.010Z,0.34
2016-02-18T01:28:07.995Z,0.37
2016-02-18T01:30:11.095Z,0.36
2016-02-18T01:31:04.848Z,0.2
2016-02-18T01:32:17.603Z,0.2
2016-02-18T01:33:17.605Z,0.23
2016-02-18T01:34:30.577Z,0.08
2016-02-18T01:35:46.454Z,0.06
2016-02-18T01:37:46.475Z,-0.05
2016-02-18T01:38:27.275Z,-0.09
2016-02-18T01:39:58.622Z,-0.07
2016-02-18T01:40:36.890Z,-0.07
2016-02-18T01:42:02.611Z,-0.07
2016-02-18T01:42:46.473Z,-0.15
2016-02-18T01:44:05.694Z,-0.17
2016-02-18T01:44:52.604Z,-0.1
2016-02-18T01:46:08.856Z,-0.21
2016-02-18T01:47:02.296Z,-0.17
2016-02-18T01:48:20.896Z,-0.21
2016-02-18T01:48:52.661Z,-0.27
2016-02-18T01:49:49.617Z,-0.28
2016-02-18T01:51:02.402Z,-0.27
2016-02-18T01:51:49.669Z,-0.31
2016-02-18T01:52:49.703Z,-0.21
2016-02-18T01:53:51.174Z,-0.3
2016-02-18T01:55:02.459Z,-0.35
2016-02-18T01:55:52.727Z,-0.39
2016-02-18T01:57:08.776Z,-0.3
2016-02-18T01:58:02.451Z,-0.44
2016-02-18T02:00:05.925Z,-0.44
2016-02-18T02:00:18.365Z,-0.45
2016-02-18T02:01:24.647Z,-0.48
2016-02-18T02:02:18.481Z,-0.51
2016-02-18T02:03:24.674Z,-0.48
2016-02-18T02:04:24.648Z,-0.6
2016-02-18T02:05:37.576Z,-0.67
2016-02-18T02:06:31.036Z,-0.7
2016-02-18T02:07:37.582Z,-0.63
2016-02-18T02:08:47.127Z,-0.63
2016-02-18T02:11:28.011Z,-0.6
2016-02-18T02:12:02.324Z,-0.7
2016-02-18T02:14:17.499Z,-0.72
2016-02-18T02:15:17.500Z,-0.74
2016-02-18T02:16:23.799Z,-0.8
2016-02-18T02:17:17.581Z,-0.8
2016-02-18T02:18:30.288Z,-0.87
2016-02-18T02:19:23.835Z,-0.84
2016-02-18T02:20:36.760Z,-0.96
2016-02-18T02:21:30.324Z,-1.06
2016-02-18T02:22:43.280Z,-1.04
2016-02-18T02:23:33.471Z,-1.03
2016-02-18T02:24:52.863Z,-1.15
2016-02-18T02:25:58.507Z,-1.12
2016-02-18T02:26:27.213Z,-0.99
2016-02-18T02:28:42.421Z,-1.17
2016-02-18T02:29:42.424Z,-1.18
2016-02-18T02:30:42.426Z,-1.14
2016-02-18T02:31:55.179Z,-1.09
2016-02-18T02:32:42.667Z,-1.09
2016-02-18T02:34:01.700Z,-1.09
2016-02-18T02:34:48.751Z,-1.15
2016-02-18T02:36:08.143Z,-1.11
2016-02-18T02:36:52.021Z,-1.18
2016-02-18T02:37:52.039Z,-1.3
2016-02-18T02:38:52.058Z,-1.29
2016-02-18T02:40:04.826Z,-1.3
2016-02-18T02:40:52.079Z,-1.25
2016-02-18T02:42:11.347Z,-1.27
2016-02-18T02:42:55.240Z,-1.3
2016-02-18T02:43:55.211Z,-1.35
2016-02-18T02:44:55.480Z,-1.42
2016-02-18T02:45:55.264Z,-1.56
2016-02-18T02:47:01.547Z,-1.56
2016-02-18T02:47:55.285Z,-1.57
2016-02-18T02:48:55.444Z,-1.72
2016-02-18T02:49:55.306Z,-1.71
2016-02-18T02:51:01.605Z,-1.6
2016-02-18T02:52:08.077Z,-1.71
2016-02-18T02:53:14.548Z,-1.76
2016-02-18T02:53:55.363Z,-1.78
2016-02-18T02:55:26.663Z,-1.78
2016-02-18T02:55:55.572Z,-1.75
2016-02-18T02:56:55.403Z,-1.86
2016-02-18T02:58:01.765Z,-1.89
2016-02-18T02:58:55.612Z,-1.89
2016-02-18T03:00:14.630Z,-1.93
2016-02-18T03:00:58.508Z,-1.89
2016-02-18T03:02:17.713Z,-1.94
2016-02-18T03:03:01.623Z,-2
2016-02-18T03:04:27.297Z,-1.97
2016-02-18T03:05:32.943Z,-1.97
2016-02-18T03:07:03.055Z,-2
2016-02-18T03:08:01.652Z,-2
2016-02-18T03:09:04.795Z,-2
2016-02-18T03:10:07.954Z,-2.1
2016-02-18T03:11:15.832Z,-2.1
2016-02-18T03:12:14.662Z,-2.14
2016-02-18T03:13:20.945Z,-2.08
2016-02-18T03:14:20.948Z,-2.11
2016-02-18T03:15:33.048Z,-2.17
2016-02-18T03:16:27.439Z,-2.14
2016-02-18T03:17:01.800Z,-2.11
2016-02-18T03:18:27.834Z,-2.08
2016-02-18T03:19:14.508Z,-2.15
2016-02-18T03:20:33.108Z,-2.11
2016-02-18T03:21:23.249Z,-2.13
2016-02-18T03:23:26.708Z,-2.08
2016-02-18T03:23:58.491Z,-2.1
2016-02-18T03:24:58.510Z,-2.17
2016-02-18T03:25:58.544Z,-2.07
2016-02-18T03:26:58.515Z,-2.02
2016-02-18T03:27:58.721Z,-2.15
2016-02-18T03:28:58.661Z,-2.05
2016-02-18T03:29:58.539Z,-2.05
2016-02-18T03:31:04.839Z,-2.02
2016-02-18T03:31:58.763Z,-2.02
2016-02-18T03:32:58.594Z,-1.99
2016-02-18T03:33:58.597Z,-2
2016-02-18T03:35:04.709Z,-1.97
2016-02-18T03:35:58.602Z,-1.99
2016-02-18T03:37:11.371Z,-2.02
2016-02-18T03:38:04.888Z,-1.96
2016-02-18T03:39:17.860Z,-1.97
2016-02-18T03:40:11.379Z,-1.94
2016-02-18T03:41:24.335Z,-1.79
2016-02-18T03:41:58.696Z,-1.69
2016-02-18T03:43:29.996Z,-1.53
2016-02-18T03:44:13.873Z,-1.5
2016-02-18T03:45:13.923Z,-1.38
2016-02-18T03:47:16.523Z,-1.25
2016-02-18T03:47:29.085Z,-1.33
2016-02-18T03:48:29.103Z,-1.24
2016-02-18T03:49:29.106Z,-1.21
2016-02-18T03:50:29.749Z,-1.24
2016-02-18T03:51:41.879Z,-1.27
2016-02-18T03:52:29.175Z,-1.29
2016-02-18T03:53:48.353Z,-1.15
2016-02-18T03:54:41.919Z,-1.11
2016-02-18T03:55:54.875Z,-1.09
2016-02-18T03:56:48.408Z,-1.11
2016-02-18T03:58:00.521Z,-1.11
2016-02-18T03:58:29.224Z,-1.07
2016-02-18T03:59:29.226Z,-1.14
2016-02-18T04:00:41.997Z,-1.07
2016-02-18T04:01:29.310Z,-1.06
2016-02-18T04:03:39.034Z,-1.03
2016-02-18T04:03:51.647Z,-1
2016-02-18T04:04:57.915Z,-1
2016-02-18T04:07:00.999Z,-0.93
2016-02-18T04:08:32.283Z,-0.82
2016-02-18T04:09:10.535Z,-0.8
2016-02-18T04:10:10.554Z,-0.81
2016-02-18T04:11:16.822Z,-0.82
2016-02-18T04:12:23.310Z,-0.77
2016-02-18T04:13:23.312Z,-0.75
2016-02-18T04:14:29.783Z,-0.63
2016-02-18T04:15:29.801Z,-0.63
2016-02-18T04:16:36.273Z,-0.66
2016-02-18T04:17:41.931Z,-0.74
2016-02-18T04:18:51.294Z,-0.64
2016-02-18T04:21:00.224Z,-0.63
2016-02-18T04:22:00.226Z,-0.75
2016-02-18T04:23:12.964Z,-0.78
2016-02-18T04:24:00.856Z,-0.78
2016-02-18T04:25:19.437Z,-0.82
2016-02-18T04:26:09.565Z,-0.7
2016-02-18T04:27:29.006Z,-0.81
2016-02-18T04:28:07.212Z,-0.84
2016-02-18T04:30:09.858Z,-0.87
2016-02-18T04:30:49.529Z,-0.87
2016-02-18T04:31:23.828Z,-0.8
2016-02-18T04:32:55.753Z,-0.78
2016-02-18T04:33:30.630Z,-0.78
2016-02-18T04:34:58.903Z,-0.78
2016-02-18T04:35:37.153Z,-0.82
2016-02-18T04:37:02.861Z,-0.8
2016-02-18T04:37:49.767Z,-0.82
2016-02-18T04:39:12.428Z,-0.77
2016-02-18T04:39:56.335Z,-0.75
2016-02-18T04:40:56.321Z,-0.74
2016-02-18T04:42:09.094Z,-0.82
2016-02-18T04:42:56.359Z,-0.82
2016-02-18T04:44:15.567Z,-0.82
2016-02-18T04:45:28.320Z,-0.8
2016-02-18T04:46:12.291Z,-0.75
2016-02-18T04:47:31.434Z,-0.81
2016-02-18T04:48:15.343Z,-0.81
2016-02-18T04:49:15.330Z,-0.78
2016-02-18T04:50:15.332Z,-0.82
2016-02-18T04:51:15.382Z,-0.8
2016-02-18T04:52:28.088Z,-0.77
2016-02-18T04:53:28.138Z,-0.67
2016-02-18T04:54:34.641Z,-0.64
2016-02-18T04:55:41.065Z,-0.63
2016-02-18T04:56:41.099Z,-0.6
2016-02-18T04:57:46.726Z,-0.74
2016-02-18T04:58:15.433Z,-0.72
2016-02-18T05:00:56.313Z,-0.64
2016-02-18T05:01:30.629Z,-0.63
2016-02-18T05:04:15.636Z,-0.66
2016-02-18T05:04:48.972Z,-0.7
2016-02-18T05:07:04.069Z,-0.77
2016-02-18T05:08:04.071Z,-0.74
2016-02-18T05:09:04.074Z,-0.69
2016-02-18T05:10:10.390Z,-0.66
2016-02-18T05:11:10.361Z,-0.7
2016-02-18T05:12:16.864Z,-0.57
2016-02-18T05:13:04.133Z,-0.63
2016-02-18T05:14:22.713Z,-0.72
2016-02-18T05:15:13.674Z,-0.69
2016-02-18T05:16:26.317Z,-0.63
2016-02-18T05:17:20.382Z,-0.66
2016-02-18T05:18:36.572Z,-0.64
2016-02-18T05:19:17.810Z,-0.69
2016-02-18T05:20:49.141Z,-0.77
2016-02-18T05:21:20.893Z,-0.74
2016-02-18T05:22:52.224Z,-0.64
2016-02-18T05:23:27.179Z,-0.62
2016-02-18T05:24:20.948Z,-0.67
2016-02-18T05:25:20.950Z,-0.67
2016-02-18T05:26:33.812Z,-0.66
2016-02-18T05:27:20.972Z,-0.62
2016-02-18T05:28:46.662Z,-0.69
2016-02-18T05:29:24.899Z,-0.64
2016-02-18T05:30:56.214Z,-0.67
2016-02-18T05:31:31.201Z,-0.62
2016-02-18T05:33:02.566Z,-0.69
2016-02-18T05:33:44.159Z,-0.64
2016-02-18T05:35:37.696Z,-0.63
2016-02-18T05:36:24.997Z,-0.72
2016-02-18T05:37:44.202Z,-0.63
2016-02-18T05:38:24.986Z,-0.67
2016-02-18T05:39:50.707Z,-0.64
2016-02-18T05:40:25.053Z,-0.72
2016-02-18T05:41:56.338Z,-0.77
2016-02-18T05:42:40.340Z,-0.62
2016-02-18T05:43:40.343Z,-0.8
2016-02-18T05:44:40.345Z,-0.8
2016-02-18T05:45:40.395Z,-0.78
2016-02-18T05:46:40.445Z,-0.81
2016-02-18T05:47:53.135Z,-0.74
2016-02-18T05:48:41.029Z,-0.75
2016-02-18T05:49:59.609Z,-0.74
2016-02-18T05:50:53.159Z,-0.72
2016-02-18T05:51:40.473Z,-0.77
2016-02-18T05:53:06.135Z,-0.77
2016-02-18T05:54:15.779Z,-0.74
2016-02-18T05:55:12.391Z,-0.75
2016-02-18T05:55:59.688Z,-0.78
2016-02-18T05:56:59.675Z,-0.69
2016-02-18T05:57:59.693Z,-0.75
2016-02-18T05:58:59.711Z,-0.7
2016-02-18T05:59:59.698Z,-0.74
2016-02-18T06:01:12.453Z,-0.77
2016-02-18T06:02:06.035Z,-0.74
2016-02-18T06:02:59.770Z,-0.78
2016-02-18T06:04:12.618Z,-0.78
2016-02-18T06:05:31.077Z,-0.77
2016-02-18T06:06:02.862Z,-0.7
2016-02-18T06:08:05.476Z,-0.74
2016-02-18T06:08:18.132Z,-0.74
2016-02-18T06:09:18.120Z,-0.75
2016-02-18T06:10:18.122Z,-0.7
2016-02-18T06:11:30.875Z,-0.66
2016-02-18T06:12:24.426Z,-0.62
2016-02-18T06:13:37.381Z,-0.59
2016-02-18T06:14:30.977Z,-0.6
2016-02-18T06:15:49.511Z,-0.72
2016-02-18T06:16:32.373Z,-0.69
2016-02-18T06:17:18.219Z,-0.67
2016-02-18T06:18:37.441Z,-0.62
2016-02-18T06:19:19.709Z,-0.62
2016-02-18T06:20:49.556Z,-0.7
2016-02-18T06:21:27.793Z,-0.63
2016-02-18T06:22:27.811Z,-0.66
2016-02-18T06:23:43.001Z,-0.67
2016-02-18T06:24:30.160Z,-0.64
2016-02-18T06:25:49.381Z,-0.63
2016-02-18T06:26:30.180Z,-0.7
2016-02-18T06:28:27.234Z,-0.64
2016-02-18T06:28:39.781Z,-0.59
2016-02-18T06:30:49.380Z,-0.59
2016-02-18T06:31:52.569Z,-0.51
2016-02-18T06:33:02.119Z,-0.54
2016-02-18T06:34:02.152Z,-0.48
2016-02-18T06:35:02.141Z,-0.54
2016-02-18T06:36:08.521Z,-0.42
2016-02-18T06:37:02.193Z,-0.45
2016-02-18T06:38:21.386Z,-0.39
2016-02-18T06:39:02.199Z,-0.38
2016-02-18T06:40:27.985Z,-0.33
2016-02-18T06:41:14.972Z,-0.31
2016-02-18T06:42:33.552Z,-0.36
2016-02-18T06:43:08.571Z,-0.33
2016-02-18T06:44:02.259Z,-0.36
2016-02-18T06:45:02.292Z,-0.39
2016-02-18T06:46:08.562Z,-0.3
2016-02-18T06:47:15.020Z,-0.31
2016-02-18T06:48:16.459Z,-0.28
2016-02-18T06:49:02.334Z,-0.39
2016-02-18T06:51:43.201Z,-0.24
2016-02-18T06:53:58.410Z,-0.28
2016-02-18T06:54:58.428Z,-0.3
2016-02-18T06:56:29.747Z,-0.2
2016-02-18T06:57:39.296Z,-0.27
2016-02-18T06:59:10.614Z,-0.24
2016-02-18T06:59:48.895Z,-0.23
2016-02-18T07:00:23.304Z,-0.13
2016-02-18T07:02:25.824Z,-0.18
2016-02-18T07:03:04.152Z,-0.18
2016-02-18T07:03:38.375Z,-0.27
2016-02-18T07:06:19.913Z,-0.23
2016-02-18T07:06:54.273Z,-0.23
2016-02-18T07:08:25.591Z,-0.13
2016-02-18T07:09:09.484Z,-0.18
2016-02-18T07:10:09.502Z,-0.15
2016-02-18T07:11:09.490Z,-0.13
2016-02-18T07:12:09.555Z,-0.21
2016-02-18T07:13:15.792Z,-0.13
2016-02-18T07:14:22.279Z,-0.13
2016-02-18T07:15:22.282Z,-0.17
2016-02-18T07:16:28.878Z,-0.15
2016-02-18T07:17:38.443Z,-0.1
2016-02-18T07:18:38.445Z,-0.05
2016-02-18T07:19:44.730Z,0.01
2016-02-18T07:20:44.733Z,0
2016-02-18T07:21:51.266Z,-0.03
2016-02-18T07:22:57.707Z,0.02
2016-02-18T07:24:00.803Z,0.06
2016-02-18T07:25:07.075Z,-0.05
2016-02-18T07:25:50.950Z,0.01
2016-02-18T07:29:03.113Z,0.23
2016-02-18T07:29:31.866Z,0.16
2016-02-18T07:30:31.853Z,0.11
2016-02-18T07:31:44.605Z,0.23
2016-02-18T07:32:31.905Z,0.15
2016-02-18T07:33:51.096Z,0.09
2016-02-18T07:34:32.504Z,0.16
2016-02-18T07:35:57.569Z,0.34
2016-02-18T07:36:41.479Z,0.36
2016-02-18T07:38:03.715Z,0.44
2016-02-18T07:38:47.594Z,0.48
2016-02-18T07:40:13.302Z,0.61
2016-02-18T07:40:57.208Z,0.58
2016-02-18T07:42:22.885Z,0.58
2016-02-18T07:43:25.966Z,0.59
2016-02-18T07:44:26.048Z,0.7
2016-02-18T07:45:07.393Z,0.7
2016-02-18T07:47:22.070Z,0.82
2016-02-18T07:48:22.089Z,0.82
2016-02-18T07:49:28.374Z,0.88
2016-02-18T07:50:34.814Z,0.92
2016-02-18T07:51:41.379Z,0.92
2016-02-18T07:52:22.115Z,0.96
2016-02-18T07:53:47.822Z,1
2016-02-18T07:54:57.386Z,1.09
2016-02-18T07:55:50.920Z,0.99
2016-02-18T07:57:50.020Z,0.99
2016-02-18T07:58:50.039Z,0.99
2016-02-18T07:59:56.306Z,1
2016-02-18T08:01:02.825Z,1.04
2016-02-18T08:01:56.327Z,1.03
2016-02-18T08:03:47.113Z,1.09
2016-02-18T08:04:12.538Z,1.07
2016-02-18T08:05:12.480Z,1.06
2016-02-18T08:06:12.512Z,1.13
2016-02-18T08:07:13.905Z,1.03
2016-02-18T08:08:12.519Z,1.07
2016-02-18T08:09:25.255Z,1.12
2016-02-18T08:10:18.821Z,1.04
2016-02-18T08:11:31.776Z,1.14
2016-02-18T08:12:25.138Z,1.16
2016-02-18T08:14:28.768Z,1.13
2016-02-18T08:14:41.440Z,1.16
2016-02-18T08:15:41.427Z,1.12
2016-02-18T08:16:41.446Z,1.22
2016-02-18T08:17:41.495Z,1.18
2016-02-18T08:18:47.732Z,1.14
2016-02-18T08:19:41.470Z,1.21
2016-02-18T08:20:41.488Z,1.22
2016-02-18T08:21:54.272Z,1.25
2016-02-18T08:23:07.212Z,1.21
2016-02-18T08:23:54.387Z,1.18
2016-02-18T08:26:03.360Z,1.32
2016-02-18T08:26:28.691Z,1.32
2016-02-18T08:27:15.928Z,1.25
2016-02-18T08:28:35.369Z,1.32
2016-02-18T08:29:22.839Z,1.3
2016-02-18T08:30:47.281Z,1.28
2016-02-18T08:31:18.049Z,1.32
2016-02-18T08:33:28.867Z,1.38
2016-02-18T08:34:16.041Z,1.36
2016-02-18T08:35:41.747Z,1.43
2016-02-18T08:36:25.625Z,1.5
2016-02-18T08:37:25.643Z,1.43
2016-02-18T08:38:31.943Z,1.56
2016-02-18T08:39:25.882Z,1.64
2016-02-18T08:40:44.916Z,1.63
2016-02-18T08:41:27.138Z,1.61
2016-02-18T08:42:51.593Z,1.61
2016-02-18T08:43:35.487Z,1.66
2016-02-18T08:46:10.730Z,1.63
2016-02-18T08:47:04.261Z,1.66
2016-02-18T08:48:13.845Z,1.61
2016-02-18T08:48:57.720Z,1.63
2016-02-18T08:49:57.753Z,1.61
2016-02-18T08:51:10.509Z,1.67
2016-02-18T08:52:10.620Z,1.75
2016-02-18T08:53:16.826Z,1.86
2016-02-18T08:54:17.110Z,1.81
2016-02-18T08:56:01.003Z,1.97
2016-02-18T08:57:01.085Z,1.93
2016-02-18T08:58:07.900Z,2.04
2016-02-18T08:59:01.106Z,2.08
2016-02-18T09:00:20.252Z,2.07
2016-02-18T09:01:04.127Z,2.07
2016-02-18T09:02:23.351Z,1.97
2016-02-18T09:03:04.836Z,1.98
2016-02-18T09:05:06.794Z,1.82
2016-02-18T09:05:45.077Z,2.01
2016-02-18T09:06:19.300Z,2.05
2016-02-18T09:08:22.070Z,1.98
2016-02-18T09:09:00.320Z,1.97
2016-02-18T09:09:34.698Z,1.95
2016-02-18T09:10:34.700Z,2.01
2016-02-18T09:11:34.687Z,2.03
2016-02-18T09:12:34.721Z,2.07
2016-02-18T09:13:36.146Z,2
2016-02-18T09:14:41.024Z,2.08
2016-02-18T09:15:53.948Z,2.1
2016-02-18T09:16:47.716Z,2.16
2016-02-18T09:18:00.454Z,2.14
2016-02-18T09:18:54.066Z,2.15
2016-02-18T09:20:09.256Z,2.14
2016-02-18T09:20:50.712Z,2.19
2016-02-18T09:22:22.029Z,2.07
2016-02-18T09:23:31.579Z,2.14
2016-02-18T09:24:06.032Z,2.21
2016-02-18T09:26:08.553Z,2.19
2016-02-18T09:26:21.150Z,2.23
2016-02-18T09:27:21.136Z,2.28
2016-02-18T09:28:33.874Z,2.21
2016-02-18T09:29:21.173Z,2.28
2016-02-18T09:30:40.379Z,2.21
2016-02-18T09:31:21.836Z,2.28
2016-02-18T09:33:18.216Z,2.19
2016-02-18T09:33:50.012Z,2.21
2016-02-18T09:34:59.578Z,2.22
2016-02-18T09:35:33.924Z,2.22
2016-02-18T09:36:34.599Z,2.28
2016-02-18T09:37:34.757Z,2.21
2016-02-18T09:38:46.760Z,2.25
2016-02-18T09:39:33.997Z,2.19
2016-02-18T09:40:59.703Z,2.22
2016-02-18T09:42:02.769Z,2.12
2016-02-18T09:42:43.615Z,2.15
2016-02-18T09:43:43.618Z,2.1
2016-02-18T09:44:56.449Z,2.12
2016-02-18T09:45:43.623Z,2.22
2016-02-18T09:47:02.860Z,2.1
2016-02-18T09:47:43.706Z,2.26
2016-02-18T09:49:09.349Z,2.14
2016-02-18T09:49:56.273Z,2.14
2016-02-18T09:51:12.465Z,2.1
2016-02-18T09:52:55.892Z,2.03
2016-02-18T09:53:34.223Z,2.14
2016-02-18T09:54:34.179Z,2.21
2016-02-18T09:55:34.181Z,2.19
2016-02-18T09:56:34.184Z,2.21
2016-02-18T09:57:46.951Z,2.1
2016-02-18T09:58:34.236Z,2.15
2016-02-18T09:59:59.910Z,2.23
2016-02-18T10:00:43.756Z,2.16
2016-02-18T10:01:43.870Z,2.19
2016-02-18T10:02:45.387Z,2.26
2016-02-18T10:04:53.533Z,2.3
2016-02-18T10:05:06.080Z,2.33
2016-02-18T10:06:06.114Z,2.34
2016-02-18T10:07:06.116Z,2.3
2016-02-18T10:08:18.888Z,2.36
2016-02-18T10:09:06.763Z,2.41
2016-02-18T10:10:25.986Z,2.39
2016-02-18T10:11:12.893Z,2.37
2016-02-18T10:12:09.896Z,2.36
2016-02-18T10:13:22.636Z,2.37
2016-02-18T10:14:09.980Z,2.37
2016-02-18T10:15:22.860Z,2.4
2016-02-18T10:16:10.016Z,2.43
2016-02-18T10:17:29.177Z,2.46
2016-02-18T10:18:19.337Z,2.41
2016-02-18T10:19:38.777Z,2.5
2016-02-18T10:20:51.389Z,2.52
2016-02-18T10:21:42.376Z,2.46
2016-02-18T10:22:52.065Z,2.52
2016-02-18T10:23:45.522Z,2.52
2016-02-18T10:24:55.071Z,2.46
2016-02-18T10:25:29.418Z,2.57
2016-02-18T10:27:44.611Z,2.58
2016-02-18T10:28:44.723Z,2.5
2016-02-18T10:29:50.897Z,2.57
2016-02-18T10:30:57.447Z,2.68
2016-02-18T10:31:57.262Z,2.62
2016-02-18T10:33:10.375Z,2.64
2016-02-18T10:34:03.408Z,2.62
2016-02-18T10:35:12.942Z,2.68
2016-02-18T10:35:47.289Z,2.73
2016-02-18T10:37:49.981Z,2.75
2016-02-18T10:38:02.591Z,2.7
2016-02-18T10:39:02.594Z,2.82
2016-02-18T10:40:09.049Z,2.77
2016-02-18T10:41:08.974Z,2.8
2016-02-18T10:42:21.823Z,2.77
2016-02-18T10:43:21.825Z,2.85
2016-02-18T10:44:21.844Z,2.77
2016-02-18T10:45:28.550Z,2.77
2016-02-18T10:46:38.083Z,2.83
2016-02-18T10:47:31.649Z,2.82
2016-02-18T10:48:43.760Z,2.95
2016-02-18T10:49:21.998Z,2.93
2016-02-18T10:50:22.001Z,2.9
2016-02-18T10:51:22.050Z,2.9
2016-02-18T10:52:53.381Z,2.91
2016-02-18T10:53:31.634Z,2.94
2016-02-18T10:54:31.652Z,2.91
2016-02-18T10:55:37.952Z,2.91
2016-02-18T10:56:31.689Z,2.93
2016-02-18T10:57:50.910Z,2.97
2016-02-18T10:58:31.725Z,3.01
2016-02-18T10:59:57.415Z,3.03
2016-02-18T11:00:41.417Z,3.09
2016-02-18T11:01:41.421Z,3.15
2016-02-18T11:02:54.065Z,3.21
2016-02-18T11:03:41.958Z,3.3
2016-02-18T11:05:07.054Z,3.37
2016-02-18T11:05:41.385Z,3.37
2016-02-18T11:07:12.684Z,3.56
2016-02-18T11:07:50.937Z,3.59
2016-02-18T11:09:47.921Z,3.66
2016-02-18T11:10:03.531Z,3.63
2016-02-18T11:12:10.105Z,3.64
2016-02-18T11:14:25.342Z,3.85
2016-02-18T11:15:25.356Z,3.74
2016-02-18T11:16:51.026Z,3.59
2016-02-18T11:17:34.931Z,3.66
2016-02-18T11:18:54.167Z,3.63
2016-02-18T11:19:38.042Z,3.61
2016-02-18T11:20:57.324Z,3.53
2016-02-18T11:22:39.608Z,3.5
2016-02-18T11:23:05.217Z,3.52
2016-02-18T11:23:52.485Z,3.46
2016-02-18T11:26:58.225Z,3.36
2016-02-18T11:27:58.211Z,3.36
2016-02-18T11:29:10.964Z,3.33
2016-02-18T11:30:10.966Z,3.15
2016-02-18T11:31:23.940Z,3.21
2016-02-18T11:32:20.535Z,3.26
2016-02-18T11:33:30.101Z,3.29
2016-02-18T11:36:10.965Z,3.34
2016-02-18T11:36:45.311Z,3.29
2016-02-18T11:38:16.611Z,3.4
2016-02-18T11:39:00.489Z,3.41
2016-02-18T11:40:00.507Z,3.53
2016-02-18T11:41:31.825Z,3.61
2016-02-18T11:42:28.453Z,3.67
2016-02-18T11:43:34.939Z,3.77
2016-02-18T11:44:44.520Z,3.67
2016-02-18T11:47:18.983Z,3.61
2016-02-18T11:47:53.311Z,3.64
2016-02-18T11:49:24.627Z,3.58
2016-02-18T11:50:02.893Z,3.63
2016-02-18T11:52:18.133Z,3.59
2016-02-18T11:53:18.183Z,3.56
2016-02-18T11:54:30.891Z,3.66
2016-02-18T11:55:30.925Z,3.7
2016-02-18T11:56:37.177Z,3.76
2016-02-18T11:57:37.524Z,3.77
2016-02-18T11:58:43.699Z,3.68
2016-02-18T12:01:31.020Z,3.88
2016-02-18T12:02:31.006Z,3.99
2016-02-18T12:03:37.525Z,4.06
2016-02-18T12:04:43.824Z,4.13
2016-02-18T12:05:50.280Z,4.13
2016-02-18T12:07:31.801Z,4.14
2016-02-18T12:08:53.414Z,4.3
2016-02-18T12:09:53.431Z,4.45
2016-02-18T12:11:00.294Z,4.39
2016-02-18T12:11:53.453Z,4.48
2016-02-18T12:14:07.520Z,4.61
2016-02-18T12:15:06.086Z,4.64
2016-02-18T12:16:18.822Z,4.76
2016-02-18T12:17:12.372Z,4.63
2016-02-18T12:18:31.816Z,4.75
2016-02-18T12:19:25.349Z,4.64
2016-02-18T12:21:25.308Z,4.78
2016-02-18T12:21:37.995Z,4.87
2016-02-18T12:22:38.013Z,4.89
2016-02-18T12:23:44.297Z,4.98
2016-02-18T12:24:50.784Z,5
2016-02-18T12:25:38.069Z,5.1
2016-02-18T12:26:57.305Z,5.2
2016-02-18T12:27:38.152Z,5.25
2016-02-18T12:29:40.720Z,5.36
2016-02-18T12:30:06.048Z,5.34
2016-02-18T12:31:06.035Z,5.43
2016-02-18T12:32:06.068Z,5.33
2016-02-18T12:33:06.087Z,5.44
2016-02-18T12:34:18.824Z,5.43
2016-02-18T12:35:18.843Z,5.43
2016-02-18T12:36:31.801Z,5.62
2016-02-18T12:37:18.879Z,5.56
2016-02-18T12:38:37.478Z,5.51
2016-02-18T12:39:27.715Z,5.51
2016-02-18T12:41:32.534Z,5.47
2016-02-18T12:42:32.536Z,5.34
2016-02-18T12:44:47.761Z,5.25
2016-02-18T12:46:06.967Z,5.28
2016-02-18T12:47:13.469Z,5.34
2016-02-18T12:48:07.019Z,5.46
2016-02-18T12:50:09.633Z,5.59
2016-02-18T12:50:28.588Z,5.65
2016-02-18T12:51:53.575Z,5.79
2016-02-18T12:52:38.173Z,5.72
2016-02-18T12:53:25.410Z,5.76
2016-02-18T12:54:25.428Z,5.76
2016-02-18T12:55:26.836Z,5.81
2016-02-18T12:56:25.449Z,5.94
2016-02-18T12:58:00.482Z,6.13
2016-02-18T12:58:32.266Z,6.12
2016-02-18T13:00:47.475Z,6.39
2016-02-18T13:03:48.171Z,6.49
2016-02-18T13:04:28.846Z,6.54
2016-02-18T13:06:31.616Z,6.36
2016-02-18T13:06:44.210Z,6.56
2016-02-18T13:07:44.212Z,6.41
2016-02-18T13:08:50.512Z,6.43
2016-02-18T13:09:56.984Z,6.56
2016-02-18T13:11:03.439Z,6.6
2016-02-18T13:12:00.115Z,6.52
2016-02-18T13:13:06.554Z,6.47
2016-02-18T13:13:47.979Z,6.5
2016-02-18T13:15:50.109Z,6.65
2016-02-18T13:16:23.299Z,6.75
2016-02-18T13:17:04.111Z,6.75
2016-02-18T13:18:04.145Z,6.83
2016-02-18T13:19:04.148Z,6.71
2016-02-18T13:20:04.167Z,6.68
2016-02-18T13:21:04.186Z,6.65
2016-02-18T13:22:10.438Z,6.67
2016-02-18T13:23:05.909Z,6.47
2016-02-18T13:24:23.427Z,6.5
2016-02-18T13:25:07.306Z,6.57
2016-02-18T13:27:23.185Z,6.57
2016-02-18T13:28:35.941Z,6.5
2016-02-18T13:29:35.991Z,6.46
2016-02-18T13:30:42.415Z,6.5
2016-02-18T13:32:20.215Z,6.35
2016-02-18T13:32:58.482Z,6.29
2016-02-18T13:35:01.098Z,6.13
2016-02-18T13:35:13.691Z,6.12
2016-02-18T13:36:13.851Z,6.12
2016-02-18T13:37:39.418Z,6.02
2016-02-18T13:38:23.653Z,5.91
2016-02-18T13:41:35.507Z,5.76
2016-02-18T13:42:13.726Z,5.69
2016-02-18T13:42:54.463Z,5.83
2016-02-18T13:44:51.468Z,5.84
2016-02-18T13:45:10.265Z,5.88
2016-02-18T13:46:10.189Z,5.91
2016-02-18T13:47:22.928Z,5.9
2016-02-18T13:48:22.961Z,5.8
2016-02-18T13:49:29.435Z,5.77
2016-02-18T13:50:29.453Z,5.79
2016-02-18T13:51:41.581Z,5.65
2016-02-18T13:52:35.974Z,5.62
2016-02-18T13:53:10.333Z,5.64
2016-02-18T13:55:12.949Z,5.55
2016-02-18T13:55:51.342Z,5.49
2016-02-18T13:56:25.813Z,5.41
2016-02-18T13:58:28.319Z,5.34
2016-02-18T13:58:40.897Z,5.4
2016-02-18T13:59:40.946Z,5.29
2016-02-18T14:00:41.590Z,5.28
2016-02-18T14:01:47.310Z,5.19
2016-02-18T14:02:53.721Z,5.07
2016-02-18T14:03:53.738Z,5
2016-02-18T14:05:06.714Z,5.02
2016-02-18T14:05:41.076Z,5.08
2016-02-18T14:07:13.766Z,4.94
2016-02-18T14:07:45.581Z,5.02
2016-02-18T14:09:50.321Z,4.94
2016-02-18T14:12:07.201Z,5.01
2016-02-18T14:13:07.126Z,5.05
2016-02-18T14:14:07.144Z,5.02
2016-02-18T14:15:07.147Z,5.07
2016-02-18T14:16:26.386Z,5.13
2016-02-18T14:17:07.215Z,5.13
2016-02-18T14:18:32.876Z,5.15
2016-02-18T14:19:07.251Z,5.16
2016-02-18T14:20:39.944Z,4.95
2016-02-18T14:21:11.585Z,5.08
2016-02-18T14:22:11.588Z,5.05
2016-02-18T14:23:24.590Z,5.12
2016-02-18T14:24:11.702Z,5.22
2016-02-18T14:25:37.333Z,5.12
2016-02-18T14:26:12.958Z,5.13
2016-02-18T14:27:11.788Z,5.18
2016-02-18T14:28:11.948Z,5.05
2016-02-18T14:29:12.388Z,5
2016-02-18T14:30:24.656Z,4.95
2016-02-18T14:31:11.721Z,5.01
2016-02-18T14:32:37.554Z,5.05
2016-02-18T14:33:47.136Z,4.97
2016-02-18T14:34:31.045Z,5.02
2016-02-18T14:35:56.750Z,4.98
2016-02-18T14:36:37.347Z,4.89